Time;durP1;ratioP1;P1;durP2;ratioP2;P2;SDS_P1;SDS_P2;PMS_P1;PMS_P2;Temp;Humidity;BMP_temperature;BMP_pressure;BME280_temperature;BME280_humidity;BME280_pressure;Samples;Min_cycle;Max_cycle;Signal;HPM_P1;HPM_P2
2021/07/14 00:02:07;;;;;;;64.57;40.35;;;21.20;99.90;;;;;;5067722;28;20201;-76
2021/07/14 00:04:35;;;;;;;63.58;37.78;;;21.30;99.90;;;;;;5068041;28;20256;-76
2021/07/14 00:07:02;;;;;;;61.35;38.92;;;21.30;99.90;;;;;;5068035;28;20229;-77
2021/07/14 00:09:29;;;;;;;62.33;40.45;;;21.30;99.90;;;;;;5068057;28;20202;-76
2021/07/14 00:11:57;;;;;;;63.15;40.47;;;21.20;99.90;;;;;;5067330;28;20197;-77
2021/07/14 00:14:46;;;;;;;66.32;38.97;;;21.20;99.90;;;;;;5073821;28;20209;-77
2021/07/14 00:17:23;;;;;;;59.38;40.33;;;21.20;99.90;;;;;;5071341;28;20231;-77
2021/07/14 00:22:38;;;;;;;67.90;39.95;;;21.30;99.90;;;;;;5068644;28;20196;-77
2021/07/14 00:25:06;;;;;;;62.63;39.75;;;21.20;99.90;;;;;;5068202;28;20209;-77
2021/07/14 00:27:38;;;;;;;59.53;39.33;;;21.20;99.90;;;;;;5077387;28;20233;-77
2021/07/14 00:30:08;;;;;;;61.58;38.67;;;21.30;99.90;;;;;;5074306;28;20749;-77
2021/07/14 00:32:37;;;;;;;68.07;41.50;;;21.20;99.90;;;;;;5072060;28;20209;-77
2021/07/14 00:35:07;;;;;;;63.90;41.85;;;21.20;99.90;;;;;;5070083;28;20807;-77
2021/07/14 00:37:34;;;;;;;60.10;40.35;;;21.20;99.90;;;;;;5067801;28;20205;-77
2021/07/14 00:40:02;;;;;;;68.35;40.47;;;21.30;99.90;;;;;;5073073;28;20228;-78
2021/07/14 00:42:29;;;;;;;57.30;38.17;;;21.30;99.90;;;;;;5076321;28;20206;-78
2021/07/14 00:44:56;;;;;;;64.15;40.08;;;21.30;99.90;;;;;;5068134;28;20259;-77
2021/07/14 00:47:27;;;;;;;64.32;40.70;;;21.20;99.90;;;;;;5076419;28;20225;-77
2021/07/14 00:49:56;;;;;;;60.42;38.75;;;21.20;99.90;;;;;;5068697;28;20340;-78
2021/07/14 00:52:23;;;;;;;63.78;38.17;;;21.20;99.90;;;;;;5078833;28;20228;-77
2021/07/14 00:54:50;;;;;;;63.53;38.50;;;21.30;99.90;;;;;;5079869;28;20235;-77
2021/07/14 00:57:19;;;;;;;61.00;39.63;;;21.30;99.90;;;;;;5067580;28;20198;-77
2021/07/14 00:59:46;;;;;;;65.40;40.58;;;21.30;99.90;;;;;;5076215;28;20244;-77
2021/07/14 01:02:14;;;;;;;60.55;39.78;;;21.20;99.90;;;;;;5074034;28;20236;-77
2021/07/14 01:04:44;;;;;;;63.08;37.35;;;21.20;99.90;;;;;;5068433;28;20331;-77
2021/07/14 01:07:23;;;;;;;65.53;42.25;;;21.10;99.90;;;;;;5067839;28;20209;-77
2021/07/14 01:09:56;;;;;;;65.60;40.80;;;21.10;99.90;;;;;;5068375;28;20202;-78
2021/07/14 01:12:30;;;;;;;66.18;41.03;;;21.10;99.90;;;;;;5069102;28;20288;-78
2021/07/14 01:15:06;;;;;;;68.20;40.17;;;21.10;99.90;;;;;;5068516;28;20197;-77
2021/07/14 01:17:37;;;;;;;59.65;38.97;;;21.20;99.90;;;;;;5068301;28;20251;-77
2021/07/14 01:20:19;;;;;;;68.22;40.53;;;21.20;99.90;;;;;;5077150;28;20312;-77
2021/07/14 01:23:00;;;;;;;74.63;41.72;;;21.10;99.90;;;;;;5070330;28;20208;-77
2021/07/14 01:25:41;;;;;;;66.90;40.08;;;21.10;99.90;;;;;;5067193;28;20233;-77
2021/07/14 01:28:10;;;;;;;67.55;40.85;;;21.10;99.90;;;;;;5065998;28;20225;-77
2021/07/14 01:30:37;;;;;;;64.53;42.92;;;21.10;99.90;;;;;;5067457;28;20209;-77
2021/07/14 01:33:07;;;;;;;78.90;42.50;;;21.10;99.90;;;;;;5069365;28;20235;-77
2021/07/14 01:35:37;;;;;;;75.03;42.85;;;21.10;99.90;;;;;;5066156;28;21213;-77
2021/07/14 01:38:06;;;;;;;65.18;41.58;;;21.10;99.90;;;;;;5071224;28;20198;-77
2021/07/14 01:40:34;;;;;;;69.20;41.78;;;21.10;99.90;;;;;;5066134;28;20202;-77
2021/07/14 01:43:02;;;;;;;70.93;40.95;;;21.10;99.90;;;;;;5066761;28;20212;-77
2021/07/14 01:45:34;;;;;;;67.28;39.92;;;21.10;99.90;;;;;;5073085;28;20216;-77
2021/07/14 01:48:02;;;;;;;68.90;39.25;;;21.10;99.90;;;;;;5066363;28;20221;-76
2021/07/14 01:50:31;;;;;;;69.60;42.25;;;21.10;99.90;;;;;;5066381;28;20271;-77
2021/07/14 01:52:59;;;;;;;71.03;42.67;;;21.00;99.90;;;;;;5066036;28;20209;-77
2021/07/14 01:55:28;;;;;;;76.90;42.42;;;21.00;99.90;;;;;;5070846;28;20201;-77
2021/07/14 01:57:57;;;;;;;72.03;41.63;;;21.10;99.90;;;;;;5074092;28;20205;-77
2021/07/14 02:00:24;;;;;;;71.15;41.83;;;21.10;99.90;;;;;;5067899;28;20205;-77
2021/07/14 02:03:04;;;;;;;63.35;40.53;;;21.10;99.90;;;;;;5068703;28;20220;-77
2021/07/14 02:05:32;;;;;;;74.65;40.97;;;21.20;99.90;;;;;;5067457;28;20208;-77
2021/07/14 02:08:00;;;;;;;64.18;41.03;;;21.10;99.90;;;;;;5070049;28;20225;-77
2021/07/14 02:10:28;;;;;;;71.88;43.08;;;21.10;99.90;;;;;;5071555;28;20197;-77
2021/07/14 02:12:56;;;;;;;68.40;42.25;;;21.10;99.90;;;;;;5066578;28;20201;-77
2021/07/14 02:15:26;;;;;;;71.10;40.47;;;21.00;99.90;;;;;;5071335;28;20198;-77
2021/07/14 02:17:58;;;;;;;68.95;43.67;;;21.00;99.90;;;;;;5073684;28;20730;-77
2021/07/14 02:20:26;;;;;;;64.80;41.53;;;21.00;99.90;;;;;;5072925;28;20197;-77
2021/07/14 02:22:53;;;;;;;64.05;40.63;;;21.00;99.90;;;;;;5066763;28;20212;-77
2021/07/14 02:25:22;;;;;;;65.65;39.63;;;21.00;99.90;;;;;;5070463;28;20247;-77
2021/07/14 02:27:49;;;;;;;73.05;41.08;;;21.00;99.90;;;;;;5066253;28;20297;-77
2021/07/14 02:30:19;;;;;;;69.53;41.90;;;20.90;99.90;;;;;;5069074;28;21011;-77
2021/07/14 02:32:48;;;;;;;69.93;39.00;;;20.90;99.90;;;;;;5071634;28;20201;-77
2021/07/14 02:35:17;;;;;;;67.50;39.88;;;20.80;99.90;;;;;;5065326;28;20594;-77
2021/07/14 02:37:50;;;;;;;66.40;39.20;;;20.80;99.90;;;;;;5065780;28;20232;-77
2021/07/14 02:40:23;;;;;;;67.20;39.13;;;20.80;99.90;;;;;;5066124;28;20193;-77
2021/07/14 02:42:52;;;;;;;65.40;41.22;;;20.80;99.90;;;;;;5065161;28;20210;-77
2021/07/14 02:45:19;;;;;;;68.43;43.20;;;20.80;99.90;;;;;;5065634;28;20206;-77
2021/07/14 02:47:46;;;;;;;66.53;39.60;;;20.80;99.90;;;;;;5079133;28;20537;-77
2021/07/14 02:50:17;;;;;;;65.18;38.42;;;20.80;99.90;;;;;;5069046;28;20228;-76
2021/07/14 02:52:48;;;;;;;69.95;39.17;;;20.80;99.90;;;;;;5069661;28;20202;-76
2021/07/14 02:55:18;;;;;;;64.28;38.03;;;20.80;99.90;;;;;;5074761;28;20201;-77
2021/07/14 02:57:46;;;;;;;65.97;39.60;;;20.80;99.90;;;;;;5075733;28;20201;-76
2021/07/14 03:00:14;;;;;;;58.00;36.70;;;20.80;99.90;;;;;;5069803;28;20208;-76
2021/07/14 03:02:42;;;;;;;65.38;37.17;;;20.80;99.90;;;;;;5075877;28;20201;-76
2021/07/14 03:05:10;;;;;;;56.72;34.65;;;20.80;99.90;;;;;;5076197;28;20628;-76
2021/07/14 03:07:39;;;;;;;54.95;35.60;;;20.80;99.90;;;;;;5072706;28;20218;-76
2021/07/14 03:10:07;;;;;;;56.25;35.10;;;20.70;99.90;;;;;;5069192;28;20259;-77
2021/07/14 03:12:35;;;;;;;58.03;35.40;;;20.70;99.90;;;;;;5068666;28;20198;-76
2021/07/14 03:15:07;;;;;;;61.88;35.97;;;20.70;99.90;;;;;;5070959;28;20210;-77
2021/07/14 03:17:35;;;;;;;60.05;36.40;;;20.70;99.90;;;;;;5077872;28;20235;-76
2021/07/14 03:20:07;;;;;;;54.20;34.53;;;20.70;99.90;;;;;;5073187;28;20209;-76
2021/07/14 03:22:36;;;;;;;58.00;35.45;;;20.70;99.90;;;;;;5068753;28;20227;-76
2021/07/14 03:25:06;;;;;;;55.78;32.30;;;20.70;99.90;;;;;;5072876;28;20202;-76
2021/07/14 03:27:33;;;;;;;60.85;34.80;;;20.60;99.90;;;;;;5068449;28;20197;-76
2021/07/14 03:30:01;;;;;;;54.88;35.53;;;20.60;99.90;;;;;;5068985;28;20225;-76
2021/07/14 03:32:28;;;;;;;58.72;36.28;;;20.60;99.90;;;;;;5068912;28;20615;-76
2021/07/14 03:34:55;;;;;;;57.47;35.10;;;20.50;99.90;;;;;;5068105;28;20202;-76
2021/07/14 03:37:24;;;;;;;58.03;34.00;;;20.50;99.90;;;;;;5068830;28;20254;-76
2021/07/14 03:39:52;;;;;;;58.70;32.53;;;20.50;99.90;;;;;;5068025;28;20209;-76
2021/07/14 03:42:21;;;;;;;56.40;31.98;;;20.60;99.90;;;;;;5070359;28;20291;-76
2021/07/14 03:44:50;;;;;;;51.80;31.63;;;20.60;99.90;;;;;;5080547;28;20990;-76
2021/07/14 03:47:18;;;;;;;50.45;29.50;;;20.60;99.90;;;;;;5076180;28;20231;-77
2021/07/14 03:49:46;;;;;;;49.28;30.15;;;20.60;99.90;;;;;;5068201;28;20259;-77
2021/07/14 03:52:14;;;;;;;46.60;29.50;;;20.50;99.90;;;;;;5081436;28;20209;-77
2021/07/14 03:54:41;;;;;;;46.55;28.10;;;20.60;99.90;;;;;;5067751;28;20213;-76
2021/07/14 03:57:10;;;;;;;43.05;28.73;;;20.60;99.90;;;;;;5067193;28;20228;-76
2021/07/14 03:59:39;;;;;;;48.00;28.38;;;20.50;99.90;;;;;;5079320;28;20218;-77
2021/07/14 04:02:08;;;;;;;47.25;28.13;;;20.50;99.90;;;;;;5072985;28;20272;-77
2021/07/14 04:04:35;;;;;;;39.58;26.17;;;20.60;99.90;;;;;;5075072;28;20795;-77
2021/07/14 04:07:06;;;;;;;45.63;26.95;;;20.50;99.90;;;;;;5067032;28;20232;-76
2021/07/14 04:09:33;;;;;;;36.42;24.75;;;20.50;99.90;;;;;;5068251;28;20221;-76
2021/07/14 04:12:02;;;;;;;39.13;25.20;;;20.50;99.90;;;;;;5067912;28;20600;-76
2021/07/14 04:14:30;;;;;;;42.17;26.20;;;20.40;99.90;;;;;;5067537;28;20201;-76
2021/07/14 04:16:59;;;;;;;36.45;24.25;;;20.40;99.90;;;;;;5067648;28;20212;-76
2021/07/14 04:19:26;;;;;;;49.90;28.02;;;20.40;99.90;;;;;;5074013;28;20205;-76
2021/07/14 04:21:53;;;;;;;40.85;25.45;;;20.40;99.90;;;;;;5070914;28;20251;-76
2021/07/14 04:24:20;;;;;;;42.90;25.23;;;20.40;99.90;;;;;;5066849;28;20201;-76
2021/07/14 04:26:48;;;;;;;38.95;24.75;;;20.40;99.90;;;;;;5067209;28;20270;-76
2021/07/14 04:29:16;;;;;;;38.88;24.30;;;20.30;99.90;;;;;;5072570;28;20229;-76
2021/07/14 04:31:43;;;;;;;42.22;27.30;;;20.30;99.90;;;;;;5067418;28;20652;-76
2021/07/14 04:34:12;;;;;;;37.95;25.20;;;20.40;99.90;;;;;;5069847;28;20201;-76
2021/07/14 04:36:41;;;;;;;37.05;24.10;;;20.30;99.90;;;;;;5068664;28;20206;-76
2021/07/14 04:39:09;;;;;;;37.13;24.90;;;20.40;99.90;;;;;;5066879;28;20279;-76
2021/07/14 04:41:36;;;;;;;37.83;25.15;;;20.40;99.90;;;;;;5067357;28;20202;-75
2021/07/14 04:44:05;;;;;;;40.80;25.00;;;20.40;99.90;;;;;;5073584;28;20201;-76
2021/07/14 04:46:33;;;;;;;40.53;25.65;;;20.40;99.90;;;;;;5073968;28;20198;-76
2021/07/14 04:49:00;;;;;;;38.65;25.42;;;20.40;99.90;;;;;;5067054;28;20221;-76
2021/07/14 04:51:29;;;;;;;44.20;25.42;;;20.40;99.90;;;;;;5067286;28;20202;-76
2021/07/14 04:53:56;;;;;;;38.90;24.73;;;20.50;99.90;;;;;;5070544;28;20200;-76
2021/07/14 04:56:23;;;;;;;45.22;27.65;;;20.50;99.90;;;;;;5068492;28;20545;-76
2021/07/14 04:58:50;;;;;;;45.17;28.52;;;20.50;99.90;;;;;;5067167;28;20213;-76
2021/07/14 05:01:18;;;;;;;47.75;29.85;;;20.40;99.90;;;;;;5067161;28;20202;-76
2021/07/14 05:03:47;;;;;;;52.50;28.88;;;20.40;99.90;;;;;;5066756;28;20296;-76
2021/07/14 05:06:14;;;;;;;44.65;26.70;;;20.40;99.90;;;;;;5074814;28;20244;-76
2021/07/14 05:08:43;;;;;;;43.35;26.25;;;20.40;99.90;;;;;;5065258;28;20225;-76
2021/07/14 05:11:10;;;;;;;49.13;26.20;;;20.30;99.90;;;;;;5072662;28;20212;-76
2021/07/14 05:13:37;;;;;;;49.78;27.75;;;20.40;99.90;;;;;;5072253;28;20213;-76
2021/07/14 05:16:04;;;;;;;45.38;28.33;;;20.40;99.90;;;;;;5072709;28;20198;-76
2021/07/14 05:18:33;;;;;;;43.65;26.30;;;20.40;99.90;;;;;;5066771;28;20653;-76
2021/07/14 05:21:00;;;;;;;41.13;26.50;;;20.50;99.90;;;;;;5066491;28;20206;-75
2021/07/14 05:23:27;;;;;;;46.58;25.63;;;20.60;99.90;;;;;;5066944;28;20202;-75
2021/07/14 05:25:55;;;;;;;35.78;24.58;;;20.50;99.90;;;;;;5067085;28;20231;-75
2021/07/14 05:28:22;;;;;;;39.10;25.50;;;20.60;99.90;;;;;;5066657;28;20210;-75
2021/07/14 05:30:49;;;;;;;42.35;26.58;;;20.50;99.90;;;;;;5075825;28;20207;-75
2021/07/14 05:33:17;;;;;;;46.28;28.10;;;20.50;99.90;;;;;;5071348;28;20196;-75
2021/07/14 05:35:43;;;;;;;40.70;27.60;;;20.50;99.90;;;;;;5066784;28;20265;-75
2021/07/14 05:38:10;;;;;;;41.63;25.95;;;20.50;99.90;;;;;;5071641;28;20197;-76
2021/07/14 05:40:37;;;;;;;42.47;25.95;;;20.50;99.90;;;;;;5071546;28;20201;-76
2021/07/14 05:43:06;;;;;;;44.00;25.88;;;20.50;99.90;;;;;;5066158;28;20232;-75
2021/07/14 05:45:32;;;;;;;45.88;27.67;;;20.50;99.90;;;;;;5068785;28;20201;-75
2021/07/14 05:47:59;;;;;;;43.17;26.73;;;20.40;99.90;;;;;;5069643;28;20209;-76
2021/07/14 05:50:27;;;;;;;43.05;25.08;;;20.40;99.90;;;;;;5073614;28;20230;-76
2021/07/14 05:52:55;;;;;;;44.50;28.35;;;20.40;99.90;;;;;;5066086;28;20199;-76
2021/07/14 05:55:22;;;;;;;43.08;26.42;;;20.40;99.90;;;;;;5065941;28;20289;-75
2021/07/14 05:57:51;;;;;;;44.28;24.77;;;20.40;99.90;;;;;;5065566;28;20201;-75
2021/07/14 06:00:20;;;;;;;44.83;23.70;;;20.40;99.90;;;;;;5065931;28;20214;-76
2021/07/14 06:02:47;;;;;;;39.97;24.92;;;20.30;99.90;;;;;;5074103;28;20205;-75
2021/07/14 06:05:14;;;;;;;39.42;24.55;;;20.40;99.90;;;;;;5073064;28;20202;-76
2021/07/14 06:07:41;;;;;;;37.70;24.67;;;20.40;99.90;;;;;;5070625;28;20228;-76
2021/07/14 06:10:09;;;;;;;40.80;22.40;;;20.30;99.90;;;;;;5065755;28;20252;-76
2021/07/14 06:12:36;;;;;;;39.65;24.77;;;20.40;99.90;;;;;;5065677;28;20202;-76
2021/07/14 06:15:03;;;;;;;34.83;22.77;;;20.40;99.90;;;;;;5066455;28;20201;-76
2021/07/14 06:17:32;;;;;;;38.65;22.58;;;20.30;99.90;;;;;;5065619;28;20559;-76
2021/07/14 06:19:59;;;;;;;34.70;21.17;;;20.30;99.90;;;;;;5067024;28;20198;-76
2021/07/14 06:22:27;;;;;;;38.70;22.20;;;20.30;99.90;;;;;;5072941;28;20204;-76
2021/07/14 06:24:54;;;;;;;35.38;21.38;;;20.30;99.90;;;;;;5070431;28;20271;-76
2021/07/14 06:27:21;;;;;;;40.22;22.85;;;20.40;99.90;;;;;;5070254;28;20290;-76
2021/07/14 06:29:48;;;;;;;35.00;22.50;;;20.40;99.90;;;;;;5069998;28;20225;-76
2021/07/14 06:32:15;;;;;;;35.65;20.65;;;20.30;99.90;;;;;;5076700;28;20197;-76
2021/07/14 06:34:43;;;;;;;43.70;22.20;;;20.30;99.90;;;;;;5074026;28;20241;-76
2021/07/14 06:37:10;;;;;;;34.65;20.95;;;20.20;99.90;;;;;;5069658;28;20201;-76
2021/07/14 06:39:42;;;;;;;38.42;20.13;;;20.20;99.90;;;;;;5073802;28;20205;-75
2021/07/14 06:42:09;;;;;;;29.67;18.08;;;20.20;99.90;;;;;;5076176;28;20219;-76
2021/07/14 06:44:37;;;;;;;40.38;22.33;;;20.20;99.90;;;;;;5073051;28;20232;-76
2021/07/14 06:47:05;;;;;;;27.38;18.92;;;20.20;99.90;;;;;;5072309;28;20883;-76
2021/07/14 06:49:33;;;;;;;34.53;20.83;;;20.20;99.90;;;;;;5068487;28;20220;-76
2021/07/14 06:52:01;;;;;;;33.03;18.85;;;20.20;99.90;;;;;;5069686;28;20205;-76
2021/07/14 06:54:29;;;;;;;33.80;19.05;;;20.20;99.90;;;;;;5071238;28;20193;-76
2021/07/14 06:56:56;;;;;;;38.97;18.52;;;20.20;99.90;;;;;;5069359;28;20216;-76
2021/07/14 06:59:23;;;;;;;33.33;18.95;;;20.30;99.90;;;;;;5070506;28;20723;-76
2021/07/14 07:01:50;;;;;;;38.08;19.33;;;20.30;99.90;;;;;;5075798;28;20675;-75
2021/07/14 07:04:17;;;;;;;32.42;19.42;;;20.20;99.90;;;;;;5052918;28;20236;-75
2021/07/14 07:06:44;;;;;;;28.48;18.55;;;20.20;99.90;;;;;;5081402;28;20205;-75
2021/07/14 07:09:12;;;;;;;31.83;19.77;;;20.20;99.90;;;;;;5068823;28;20668;-75
2021/07/14 07:11:39;;;;;;;30.63;18.65;;;20.20;99.90;;;;;;5068628;28;20210;-75
2021/07/14 07:14:06;;;;;;;32.17;18.52;;;20.20;99.90;;;;;;5069575;28;20212;-75
2021/07/14 07:16:33;;;;;;;30.02;19.27;;;20.20;99.90;;;;;;5074653;28;20202;-76
2021/07/14 07:19:00;;;;;;;37.63;20.95;;;20.20;99.90;;;;;;5068530;28;20206;-76
2021/07/14 07:21:28;;;;;;;32.50;19.23;;;20.30;99.90;;;;;;5077319;28;20204;-75
2021/07/14 07:23:55;;;;;;;31.15;20.38;;;20.40;99.90;;;;;;5073674;28;20197;-75
2021/07/14 07:26:23;;;;;;;28.33;19.48;;;20.40;99.90;;;;;;5068161;28;20206;-75
2021/07/14 07:28:57;;;;;;;37.20;22.85;;;20.40;99.90;;;;;;5068391;28;20618;-75
2021/07/14 07:31:24;;;;;;;31.70;20.60;;;20.50;99.90;;;;;;5071284;28;20202;-76
2021/07/14 07:33:51;;;;;;;32.92;20.67;;;20.50;99.90;;;;;;5077144;28;20205;-75
2021/07/14 07:36:18;;;;;;;34.42;21.17;;;20.40;99.90;;;;;;5075413;28;20212;-75
2021/07/14 07:38:46;;;;;;;31.90;20.15;;;20.40;99.90;;;;;;5075113;28;20205;-75
2021/07/14 07:41:13;;;;;;;28.35;19.05;;;20.40;99.90;;;;;;5069081;28;20240;-75
2021/07/14 07:43:42;;;;;;;29.67;20.88;;;20.30;99.90;;;;;;5070202;28;20202;-75
2021/07/14 07:46:10;;;;;;;29.95;19.38;;;20.20;99.90;;;;;;5069765;28;20296;-75
2021/07/14 07:48:37;;;;;;;31.65;19.38;;;20.30;99.90;;;;;;5076957;28;20209;-76
2021/07/14 07:51:05;;;;;;;33.40;18.08;;;20.30;99.90;;;;;;5081737;28;20229;-75
2021/07/14 07:53:32;;;;;;;29.15;18.17;;;20.20;99.90;;;;;;5081410;28;20197;-76
2021/07/14 07:56:00;;;;;;;26.85;17.38;;;20.30;99.90;;;;;;5082306;28;20219;-75
2021/07/14 07:58:27;;;;;;;24.05;16.77;;;20.30;99.90;;;;;;5074210;28;20193;-76
2021/07/14 08:00:56;;;;;;;25.00;16.08;;;20.30;99.90;;;;;;5067683;28;20205;-75
2021/07/14 08:03:23;;;;;;;28.42;16.35;;;20.20;99.90;;;;;;5071069;28;20236;-75
2021/07/14 08:05:50;;;;;;;23.92;14.85;;;20.10;99.90;;;;;;5079620;28;20213;-75
2021/07/14 08:08:18;;;;;;;27.38;17.85;;;20.10;99.90;;;;;;5076532;28;20204;-76
2021/07/14 08:10:45;;;;;;;23.05;16.90;;;20.00;99.90;;;;;;5076050;28;20283;-75
2021/07/14 08:13:12;;;;;;;24.23;17.63;;;20.00;99.90;;;;;;5067731;28;20206;-74
2021/07/14 08:15:40;;;;;;;31.13;16.60;;;20.00;99.90;;;;;;5067315;28;20209;-74
2021/07/14 08:18:08;;;;;;;22.67;15.95;;;19.90;99.90;;;;;;5071044;28;20207;-74
2021/07/14 08:20:35;;;;;;;23.83;16.50;;;19.90;99.90;;;;;;5069168;28;20205;-75
2021/07/14 08:23:02;;;;;;;24.38;14.65;;;20.00;99.90;;;;;;5067594;28;22492;-74
2021/07/14 08:25:29;;;;;;;22.13;15.55;;;20.20;99.90;;;;;;5067097;28;20202;-73
2021/07/14 08:27:56;;;;;;;22.30;16.23;;;20.20;99.90;;;;;;5074190;28;20661;-74
2021/07/14 08:30:23;;;;;;;22.70;16.38;;;20.20;99.90;;;;;;5067398;28;20221;-74
2021/07/14 08:32:51;;;;;;;25.65;16.88;;;20.20;99.90;;;;;;5067905;28;20205;-74
2021/07/14 08:35:19;;;;;;;28.85;18.40;;;20.20;99.90;;;;;;5067252;28;20202;-77
2021/07/14 08:37:49;;;;;;;27.00;18.73;;;20.20;99.90;;;;;;5067350;28;20202;-75
2021/07/14 08:40:18;;;;;;;30.58;20.42;;;20.20;99.90;;;;;;5067238;28;20574;-75
2021/07/14 08:42:49;;;;;;;29.38;20.75;;;20.30;99.90;;;;;;5066274;28;20255;-75
2021/07/14 08:45:20;;;;;;;31.23;21.05;;;20.30;99.90;;;;;;5070083;28;20719;-75
2021/07/14 08:47:47;;;;;;;33.72;23.05;;;20.30;99.90;;;;;;5071816;28;20237;-75
2021/07/14 08:50:15;;;;;;;32.47;21.65;;;20.40;99.90;;;;;;5071322;28;20240;-75
2021/07/14 08:52:47;;;;;;;33.88;20.95;;;20.40;99.90;;;;;;5074061;28;20210;-75
2021/07/14 08:55:16;;;;;;;36.35;20.65;;;20.40;99.90;;;;;;5071971;28;20198;-75
2021/07/14 08:57:44;;;;;;;32.60;21.15;;;20.40;99.90;;;;;;5066993;28;20205;-75
2021/07/14 09:00:14;;;;;;;32.13;21.65;;;20.50;99.90;;;;;;5068016;28;20205;-75
2021/07/14 09:02:43;;;;;;;34.38;21.15;;;20.60;99.90;;;;;;5070030;28;20212;-75
2021/07/14 09:05:11;;;;;;;32.92;19.70;;;20.70;99.90;;;;;;5070905;28;20281;-75
2021/07/14 09:07:39;;;;;;;32.17;20.63;;;20.70;99.90;;;;;;5070217;28;20202;-75
2021/07/14 09:10:09;;;;;;;36.72;22.92;;;20.60;99.90;;;;;;5074105;28;20225;-75
2021/07/14 09:12:38;;;;;;;29.65;18.73;;;20.50;99.90;;;;;;5067482;28;20259;-76
2021/07/14 09:15:07;;;;;;;22.92;15.05;;;20.50;99.90;;;;;;5071608;28;20213;-75
2021/07/14 09:17:34;;;;;;;23.63;14.52;;;20.50;99.90;;;;;;5067190;28;20235;-75
2021/07/14 09:20:10;;;;;;;23.65;14.20;;;20.40;99.90;;;;;;5068249;28;20320;-75
2021/07/14 09:22:38;;;;;;;19.98;13.85;;;20.40;99.90;;;;;;5076063;28;20185;-75
2021/07/14 09:25:12;;;;;;;15.63;11.95;;;20.40;99.90;;;;;;5083861;28;20198;-75
2021/07/14 09:27:39;;;;;;;16.20;10.80;;;20.40;99.90;;;;;;5079163;28;20191;-75
2021/07/14 09:30:12;;;;;;;20.70;11.38;;;20.30;99.90;;;;;;5069643;28;20229;-75
2021/07/14 09:32:47;;;;;;;23.73;11.60;;;20.30;99.90;;;;;;5068819;28;20205;-75
2021/07/14 09:35:24;;;;;;;19.77;12.00;;;20.20;99.90;;;;;;5073985;28;20261;-74
2021/07/14 09:37:51;;;;;;;19.30;13.00;;;20.20;99.90;;;;;;5070238;28;20232;-75
2021/07/14 09:40:20;;;;;;;28.80;16.15;;;20.20;99.90;;;;;;5067091;28;20251;-75
2021/07/14 09:42:56;;;;;;;24.75;15.70;;;20.10;99.90;;;;;;5071443;28;20205;-77
2021/07/14 09:45:46;;;;;;;28.98;18.10;;;20.10;99.90;;;;;;5074677;28;20213;-75
2021/07/14 09:48:16;;;;;;;24.48;16.73;;;20.10;99.90;;;;;;5066316;28;20202;-75
2021/07/14 09:50:45;;;;;;;31.27;19.40;;;20.00;99.90;;;;;;5066728;28;20221;-75
2021/07/14 09:53:14;;;;;;;27.75;16.83;;;20.00;99.90;;;;;;5066140;28;20582;-75
2021/07/14 09:55:44;;;;;;;30.92;19.90;;;20.00;99.90;;;;;;5067190;28;20206;-77
2021/07/14 09:58:14;;;;;;;32.80;19.40;;;20.00;99.90;;;;;;5072749;28;20205;-74
2021/07/14 10:00:43;;;;;;;39.88;22.05;;;20.00;99.90;;;;;;5069219;28;20202;-76
2021/07/14 10:08:23;;;;;;;49.75;25.88;;;19.90;99.90;;;;;;5090351;28;20195;-76
2021/07/14 10:10:52;;;;;;;48.47;26.77;;;19.90;99.90;;;;;;5095290;28;20200;-76
2021/07/14 10:13:23;;;;;;;49.80;29.48;;;19.90;99.90;;;;;;5085654;28;20196;-76
2021/07/14 10:16:03;;;;;;;54.95;28.45;;;19.90;99.90;;;;;;5088819;28;20235;-75
2021/07/14 10:18:32;;;;;;;54.55;29.60;;;20.00;99.90;;;;;;5099555;28;20301;-77
2021/07/14 10:21:01;;;;;;;55.67;28.13;;;20.00;99.90;;;;;;5087374;28;20205;-76
2021/07/14 10:23:31;;;;;;;49.78;26.50;;;20.10;99.90;;;;;;5090531;28;20237;-75
2021/07/14 10:26:00;;;;;;;54.65;29.30;;;20.10;99.90;;;;;;5082861;28;20208;-76
2021/07/14 10:28:29;;;;;;;60.10;28.65;;;20.20;99.90;;;;;;5089828;28;20207;-76
2021/07/14 10:30:57;;;;;;;50.20;25.63;;;20.20;99.90;;;;;;5092217;28;20262;-76
2021/07/14 10:33:26;;;;;;;56.28;27.67;;;20.10;99.90;;;;;;5089317;28;20212;-76
2021/07/14 10:35:54;;;;;;;75.28;30.33;;;20.10;99.90;;;;;;5096638;28;20287;-76
2021/07/14 10:38:24;;;;;;;51.35;27.55;;;20.10;99.90;;;;;;5098660;28;20272;-76
2021/07/14 10:40:54;;;;;;;56.28;29.67;;;20.10;99.90;;;;;;5093927;28;20201;-76
2021/07/14 10:43:23;;;;;;;60.75;32.05;;;20.00;99.90;;;;;;5074091;28;20225;-76
2021/07/14 10:45:52;;;;;;;60.95;29.02;;;20.00;99.90;;;;;;5084239;28;20236;-76
2021/07/14 10:48:21;;;;;;;62.05;29.40;;;20.10;99.90;;;;;;5090684;28;20259;-76
2021/07/14 10:50:49;;;;;;;52.28;28.58;;;20.10;99.90;;;;;;5087162;28;20236;-76
2021/07/14 10:53:18;;;;;;;48.90;28.15;;;20.10;99.90;;;;;;5082037;28;20209;-76
2021/07/14 10:55:46;;;;;;;56.90;31.13;;;20.10;99.90;;;;;;5084768;28;20201;-76
2021/07/14 10:58:18;;;;;;;58.95;29.42;;;20.00;99.90;;;;;;5091386;28;20197;-76
2021/07/14 11:00:46;;;;;;;50.63;28.48;;;19.90;99.90;;;;;;5093592;28;20243;-76
2021/07/14 11:03:46;;;;;;;46.08;25.45;;;19.90;99.90;;;;;;5090378;28;20582;-75
2021/07/14 11:06:15;;;;;;;47.92;25.38;;;19.90;99.90;;;;;;5087784;28;20258;-76
2021/07/14 11:08:44;;;;;;;44.60;23.98;;;19.90;99.90;;;;;;5090709;28;20209;-75
2021/07/14 11:11:12;;;;;;;39.65;23.27;;;19.90;99.90;;;;;;5072507;28;20617;-75
2021/07/14 11:13:42;;;;;;;41.08;21.85;;;20.00;99.90;;;;;;5088284;28;20209;-76
2021/07/14 11:16:29;;;;;;;43.97;24.63;;;19.90;99.90;;;;;;5074796;28;20273;-76
2021/07/14 11:19:01;;;;;;;45.03;26.65;;;19.90;99.90;;;;;;5067408;28;20198;-76
2021/07/14 11:21:54;;;;;;;51.25;26.90;;;19.90;99.90;;;;;;5075152;28;20201;-76
2021/07/14 11:24:56;;;;;;;61.42;27.38;;;19.90;99.90;;;;;;5073048;28;20233;-75
2021/07/14 11:27:46;;;;;;;66.43;31.25;;;19.90;99.90;;;;;;5072917;28;20233;-76
2021/07/14 11:30:39;;;;;;;63.72;28.67;;;20.00;99.90;;;;;;5067676;28;20300;-76
2021/07/14 11:33:07;;;;;;;66.45;32.63;;;20.00;99.90;;;;;;5073099;28;20728;-76
2021/07/14 11:35:37;;;;;;;61.47;32.53;;;19.90;99.90;;;;;;5069230;28;20205;-76
2021/07/14 11:38:06;;;;;;;70.13;32.97;;;20.00;99.90;;;;;;5067356;28;20749;-76
2021/07/14 11:40:41;;;;;;;83.75;34.63;;;20.00;99.90;;;;;;5069187;28;20197;-75
2021/07/14 11:43:33;;;;;;;75.70;36.22;;;20.00;99.90;;;;;;5076396;28;20204;-75
2021/07/14 11:46:11;;;;;;;84.82;39.47;;;20.10;99.90;;;;;;5074649;28;20209;-75
2021/07/14 11:48:39;;;;;;;98.80;44.00;;;20.20;99.90;;;;;;5075124;28;20253;-76
2021/07/14 11:51:09;;;;;;;104.03;45.90;;;20.10;99.90;;;;;;5067956;28;20256;-76
2021/07/14 11:53:44;;;;;;;129.15;48.83;;;20.10;99.90;;;;;;5071380;28;20233;-76
2021/07/14 11:56:18;;;;;;;120.53;48.88;;;20.10;99.90;;;;;;5075689;28;20656;-76
2021/07/14 11:59:07;;;;;;;124.50;50.13;;;20.20;99.90;;;;;;5063445;28;20289;-76
2021/07/14 12:02:07;;;;;;;130.85;52.65;;;20.20;99.90;;;;;;5079376;28;20205;-76
2021/07/14 12:04:41;;;;;;;126.60;51.97;;;20.20;99.90;;;;;;5078443;28;20232;-76
2021/07/14 12:07:11;;;;;;;122.45;54.58;;;20.10;99.90;;;;;;5076388;28;20243;-75
2021/07/14 12:09:42;;;;;;;140.32;50.40;;;20.10;99.90;;;;;;5078143;28;20198;-76
2021/07/14 12:12:21;;;;;;;124.47;51.45;;;20.20;99.90;;;;;;5072042;28;20205;-76
2021/07/14 12:14:49;;;;;;;130.88;49.08;;;20.20;99.90;;;;;;5066383;28;20209;-75
2021/07/14 12:17:19;;;;;;;125.78;51.72;;;20.20;99.90;;;;;;5080087;28;20231;-76
2021/07/14 12:19:59;;;;;;;110.47;50.55;;;20.20;99.90;;;;;;5073255;28;20206;-76
2021/07/14 12:22:28;;;;;;;114.45;47.85;;;20.30;99.90;;;;;;5072748;28;20204;-75
2021/07/14 12:24:57;;;;;;;125.40;48.45;;;20.30;99.90;;;;;;5074007;28;20282;-75
2021/07/14 12:27:27;;;;;;;126.53;51.13;;;20.20;99.90;;;;;;5067399;28;20205;-75
2021/07/14 12:29:56;;;;;;;123.03;53.10;;;20.30;99.90;;;;;;5076374;28;20205;-75
2021/07/14 12:32:33;;;;;;;133.82;52.67;;;20.40;99.90;;;;;;5065906;28;20243;-76
2021/07/14 12:35:01;;;;;;;147.93;58.20;;;20.40;99.90;;;;;;5065307;28;20197;-75
2021/07/14 12:37:28;;;;;;;152.60;57.53;;;20.40;99.90;;;;;;5071689;28;20228;-75
2021/07/14 12:39:56;;;;;;;155.40;59.60;;;20.50;99.90;;;;;;5069308;28;20209;-74
2021/07/14 12:42:23;;;;;;;163.23;62.50;;;20.50;99.90;;;;;;5072396;28;20198;-74
2021/07/14 12:44:51;;;;;;;177.70;62.55;;;20.50;99.90;;;;;;5066767;28;20233;-74
2021/07/14 12:47:21;;;;;;;153.18;59.70;;;20.60;99.90;;;;;;5075481;28;20197;-74